Terminal Aerodrome Forecast
Issued by NWS

Home | Current Version | Previous Version | Text Only | Print | Product List | Glossary On
Versions: 1 2 3 4 5 6 7 8 9 10 11 12 13 14 15 16
000
FTUS41 KAKQ 270300 AAB
TAFPHF
TAF AMD
KPHF 270321Z 2703/2724 00000KT 4SM BR SCT250
      TEMPO 2703/2706 1/4SM FG VV002
     FM271500 21005KT P6SM SCT200
     FM272200 19004KT P6SM SCT100=

USA.gov is the U.S. government's official web portal to all federal, state and local government web resources and services.